Terre Haute International Hulman Field
KHUF : rendu visible

Aérodrome :











RETROUVEZ-NOUS SUR...

 
LOGIN :

S'inscrire | Disclaimer

   EN    FR    IT 

 









Légende :    VFR   VFR Marginal   IFR   IFR Intensif   IFR Très Intensif
Visi : 
Plafond : 
>= 8 km
>= 3000ft
5 à 8 km
1000 à 3000 ft
1500m à 5 km
500 à 1000 ft
800 à 1500m
200 à 500 ft
< 800m
< 200 ft
Symboles :   Orages  Brouillard  Fortes neiges  Fortes précipitations  Vent > 20 kt






- Altitude de l'aérodrome : 589 ft
- Code IATA : HUF


KHUF - Terre Haute International Hulman Field

DERNIER METAR :
  • 300253Z AUTO 33004KT 10SM CLR 19/11 A3007 RMK AO2 SLP179 T01940111 53021

METARs EXPIRÉS :
  • 300153Z AUTO 31006KT 10SM CLR 21/11 A3005 RMK AO2 SLP171 T02110106
  • 300053Z AUTO 32005KT 10SM CLR 23/11 A3003 RMK AO2 SLP164 T02280106

TAF KHUF
Valide du 30 à 00h jusqu'au 31 à 00h UTC


292324Z 3000/3024 32007KT P6SM FEW045
FM301000 34005KT P6SM FEW050
FM301600 35007KT P6SM SCT080
FIR KZID / Amérique du Nord



MET'MAP, la Météo Aéronautique d'un coup d'oeil ! - Copyright ORBIFLY Décembre 2007 - Disclaimer

ORBIFLY MET'MAP TEAM :

Programmation & Développement : Alexandra Zaïnal
Sur une idée originale de : Baudouin d'Aumeries
Assistance à la programmation : Marc-Olivier Méhu
Soutien technique & logistique : Manuel Goepfert

Contact : metmap@orbifly.com




SOURCES & CREDITS :

   NOAA       Earth
Advisory